createdAt,value
2019-03-30T00:01:40.147Z,12.10
2019-03-30T00:04:08.770Z,12.20
2019-03-30T00:06:37.427Z,12.10
2019-03-30T00:09:08.236Z,12.20
2019-03-30T00:11:37.259Z,12.20
2019-03-30T00:14:06.054Z,11.90
2019-03-30T00:16:34.845Z,11.90
2019-03-30T00:19:03.404Z,11.80
2019-03-30T00:21:32.038Z,11.80
2019-03-30T00:24:00.743Z,11.70
2019-03-30T00:26:29.499Z,11.70
2019-03-30T00:28:58.374Z,11.70
2019-03-30T00:31:27.208Z,11.70
2019-03-30T00:33:55.941Z,11.80
2019-03-30T00:36:24.620Z,11.80
2019-03-30T00:38:53.484Z,11.80
2019-03-30T00:41:22.299Z,11.70
2019-03-30T00:43:51.200Z,11.80
2019-03-30T00:46:19.947Z,11.80
2019-03-30T00:48:48.677Z,11.90
2019-03-30T00:51:17.435Z,11.70
2019-03-30T00:53:46.282Z,11.80
2019-03-30T00:56:15.152Z,11.80
2019-03-30T00:58:43.927Z,11.80
2019-03-30T01:01:12.771Z,11.80
2019-03-30T01:03:41.396Z,11.80
2019-03-30T01:06:10.223Z,11.60
2019-03-30T01:08:39.035Z,11.70
2019-03-30T01:11:07.839Z,11.80
2019-03-30T01:13:36.632Z,11.70
2019-03-30T01:16:05.816Z,11.80
2019-03-30T01:18:34.438Z,11.80
2019-03-30T01:21:03.327Z,11.80
2019-03-30T01:23:32.254Z,11.80
2019-03-30T01:26:01.028Z,11.70
2019-03-30T01:28:29.639Z,11.80
2019-03-30T01:30:58.329Z,11.80
2019-03-30T01:33:27.013Z,11.70
2019-03-30T01:35:55.625Z,11.60
2019-03-30T01:38:43.096Z,11.60
2019-03-30T01:41:11.836Z,11.60
2019-03-30T01:43:40.626Z,11.50
2019-03-30T01:46:09.576Z,11.40
2019-03-30T01:48:38.299Z,11.60
2019-03-30T01:51:07.093Z,11.50
2019-03-30T01:53:35.840Z,11.60
2019-03-30T01:56:04.457Z,11.60
2019-03-30T01:58:33.202Z,11.50
2019-03-30T02:01:01.977Z,11.60
2019-03-30T02:03:30.853Z,11.60
2019-03-30T02:05:59.555Z,11.60
2019-03-30T02:08:28.416Z,11.60
2019-03-30T02:10:56.984Z,11.50
2019-03-30T02:13:25.788Z,11.50
2019-03-30T02:15:54.583Z,11.60
2019-03-30T02:18:23.346Z,11.40
2019-03-30T02:20:52.281Z,11.60
2019-03-30T02:23:21.021Z,11.50
2019-03-30T02:25:49.695Z,11.60
2019-03-30T02:28:18.504Z,11.50
2019-03-30T02:30:47.250Z,11.60
2019-03-30T02:33:16.075Z,11.50
2019-03-30T02:35:44.745Z,11.50
2019-03-30T02:38:13.604Z,11.60
2019-03-30T02:40:42.281Z,11.50
2019-03-30T02:43:11.104Z,11.40
2019-03-30T02:45:40.060Z,11.60
2019-03-30T02:48:08.905Z,11.50
2019-03-30T02:50:49.102Z,11.60
2019-03-30T02:53:08.027Z,11.50
2019-03-30T02:55:36.685Z,11.60
2019-03-30T02:58:05.401Z,11.50
2019-03-30T03:00:34.221Z,11.50
2019-03-30T03:03:03.057Z,11.50
2019-03-30T03:05:31.827Z,11.40
2019-03-30T03:08:00.607Z,11.60
2019-03-30T03:10:28.987Z,11.40
2019-03-30T03:12:57.583Z,11.40
2019-03-30T03:15:26.641Z,11.40
2019-03-30T03:17:55.284Z,11.40
2019-03-30T03:20:24.050Z,11.40
2019-03-30T03:22:52.979Z,11.40
2019-03-30T03:25:21.586Z,11.30
2019-03-30T03:27:50.205Z,11.30
2019-03-30T03:30:19.924Z,11.20
2019-03-30T03:32:48.712Z,11.20
2019-03-30T03:35:17.595Z,11.20
2019-03-30T03:37:46.687Z,11.30
2019-03-30T03:40:15.386Z,11.20
2019-03-30T03:42:45.617Z,11.20
2019-03-30T03:45:14.462Z,11.30
2019-03-30T03:47:43.219Z,11.20
2019-03-30T03:50:28.481Z,11.10
2019-03-30T03:52:57.234Z,11.10
2019-03-30T03:55:26.323Z,11.10
2019-03-30T03:57:55.245Z,11.20
2019-03-30T04:00:24.215Z,11.30
2019-03-30T04:02:53.462Z,11.20
2019-03-30T04:05:23.948Z,11.10
2019-03-30T04:07:55.981Z,11.20
2019-03-30T04:10:28.101Z,11.20
2019-03-30T04:12:59.216Z,11.20
2019-03-30T04:15:27.966Z,11.20
2019-03-30T04:17:56.743Z,11.20
2019-03-30T04:20:25.683Z,11.10
2019-03-30T04:22:54.565Z,11.10
2019-03-30T04:25:23.461Z,11.10
2019-03-30T04:27:52.251Z,11.20
2019-03-30T04:30:21.115Z,11.10
2019-03-30T04:32:50.046Z,11.10
2019-03-30T04:35:18.807Z,11.10
2019-03-30T04:37:47.528Z,11.20
2019-03-30T04:40:16.320Z,11.00
2019-03-30T04:42:45.068Z,11.00
2019-03-30T04:45:14.103Z,11.10
2019-03-30T04:47:43.048Z,11.10
2019-03-30T04:50:11.953Z,11.20
2019-03-30T04:52:40.781Z,11.10
2019-03-30T04:55:09.792Z,11.20
2019-03-30T04:57:38.499Z,11.30
2019-03-30T05:00:07.712Z,11.50
2019-03-30T05:02:39.280Z,11.50
2019-03-30T05:05:08.325Z,11.40
2019-03-30T05:07:39.812Z,11.50
2019-03-30T05:10:08.975Z,11.50
2019-03-30T05:12:37.535Z,11.50
2019-03-30T05:15:06.487Z,11.50
2019-03-30T05:17:46.910Z,11.50
2019-03-30T05:20:06.096Z,11.50
2019-03-30T05:22:34.937Z,11.60
2019-03-30T05:25:03.780Z,11.50
2019-03-30T05:27:32.468Z,11.70
2019-03-30T05:30:01.069Z,11.60
2019-03-30T05:32:29.905Z,11.60
2019-03-30T05:34:58.543Z,11.70
2019-03-30T05:37:31.753Z,11.50
2019-03-30T05:40:00.009Z,11.60
2019-03-30T05:42:28.616Z,11.70
2019-03-30T05:44:57.962Z,11.70
2019-03-30T05:47:27.018Z,11.60
2019-03-30T05:49:55.767Z,11.70
2019-03-30T05:52:26.781Z,11.80
2019-03-30T05:54:55.187Z,12.10
2019-03-30T05:57:35.841Z,12.10
2019-03-30T06:00:05.004Z,12.10
2019-03-30T06:02:33.924Z,12.40
2019-03-30T06:05:03.744Z,12.40
2019-03-30T06:07:32.687Z,12.60
2019-03-30T06:10:01.349Z,12.80
2019-03-30T06:12:30.086Z,12.90
2019-03-30T06:14:58.849Z,13.00
2019-03-30T06:17:27.498Z,13.10
2019-03-30T06:19:56.154Z,13.20
2019-03-30T06:22:24.915Z,13.30
2019-03-30T06:24:53.618Z,13.60
2019-03-30T06:27:22.419Z,13.70
2019-03-30T06:30:20.675Z,13.80
2019-03-30T06:32:49.476Z,13.90
2019-03-30T06:35:18.197Z,15.40
2019-03-30T06:37:47.850Z,16.40
2019-03-30T06:40:16.573Z,17.10
2019-03-30T06:42:45.363Z,18.10
2019-03-30T06:45:14.281Z,18.60
2019-03-30T06:47:43.039Z,19.50
2019-03-30T06:50:11.931Z,19.60
2019-03-30T06:52:46.040Z,20.20
2019-03-30T06:55:11.550Z,20.90
2019-03-30T06:57:40.283Z,20.60
2019-03-30T07:00:09.073Z,21.00
2019-03-30T07:02:38.403Z,21.60
2019-03-30T07:05:08.222Z,21.70
2019-03-30T07:07:38.219Z,22.20
2019-03-30T07:10:08.289Z,22.60
2019-03-30T07:12:40.490Z,22.50
2019-03-30T07:15:09.537Z,22.70
2019-03-30T07:17:44.763Z,22.50
2019-03-30T07:20:28.838Z,22.90
2019-03-30T07:23:10.687Z,22.50
2019-03-30T07:25:28.330Z,22.50
2019-03-30T07:27:57.224Z,23.30
2019-03-30T07:30:25.983Z,23.50
2019-03-30T07:32:54.995Z,24.50
2019-03-30T07:35:23.625Z,24.70
2019-03-30T07:37:52.425Z,24.30
2019-03-30T07:40:21.107Z,24.20
2019-03-30T07:42:49.790Z,23.90
2019-03-30T07:45:18.693Z,23.50
2019-03-30T07:47:47.215Z,23.90
2019-03-30T07:50:15.911Z,23.80
2019-03-30T07:52:44.642Z,23.50
2019-03-30T07:55:13.477Z,22.20
2019-03-30T07:57:42.152Z,22.10
2019-03-30T08:00:11.197Z,22.30
2019-03-30T08:02:39.826Z,22.20
2019-03-30T08:05:08.519Z,21.60
2019-03-30T08:07:37.480Z,21.10
2019-03-30T08:10:06.398Z,20.70
2019-03-30T08:12:35.071Z,20.10
2019-03-30T08:15:04.136Z,20.20
2019-03-30T08:17:32.765Z,21.00
2019-03-30T08:20:01.441Z,20.00
2019-03-30T08:22:30.272Z,20.50
2019-03-30T08:24:59.024Z,20.80
2019-03-30T08:27:27.723Z,21.00
2019-03-30T08:29:56.567Z,21.10
2019-03-30T08:32:25.316Z,20.70
2019-03-30T08:34:54.063Z,20.30
2019-03-30T08:37:22.942Z,20.10
2019-03-30T08:39:51.653Z,20.80
2019-03-30T08:42:20.528Z,21.10
2019-03-30T08:44:49.183Z,20.70
2019-03-30T08:47:17.796Z,20.90
2019-03-30T08:49:46.527Z,21.50
2019-03-30T08:52:15.227Z,21.50
2019-03-30T08:54:44.053Z,21.50
2019-03-30T08:57:12.747Z,21.20
2019-03-30T08:59:41.614Z,21.10
2019-03-30T09:02:10.430Z,20.80
2019-03-30T09:04:39.100Z,20.70
2019-03-30T09:07:08.005Z,20.70
2019-03-30T09:09:36.703Z,20.70
2019-03-30T09:12:05.381Z,20.50
2019-03-30T09:14:34.240Z,21.00
2019-03-30T09:17:02.964Z,20.70
2019-03-30T09:19:31.727Z,20.90
2019-03-30T09:22:00.408Z,20.90
2019-03-30T09:24:29.039Z,20.20
2019-03-30T09:26:57.704Z,20.60
2019-03-30T09:29:26.477Z,20.60
2019-03-30T09:31:55.171Z,20.50
2019-03-30T09:34:23.992Z,20.40
2019-03-30T09:36:52.893Z,20.90
2019-03-30T09:39:21.751Z,20.00
2019-03-30T09:41:50.622Z,20.40
2019-03-30T09:44:19.475Z,20.80
2019-03-30T09:46:48.187Z,20.90
2019-03-30T09:49:16.982Z,20.90
2019-03-30T09:51:45.831Z,21.00
2019-03-30T09:54:23.702Z,20.80
2019-03-30T09:56:44.989Z,20.80
2019-03-30T09:59:13.832Z,20.90
2019-03-30T10:01:42.588Z,20.50
2019-03-30T10:04:11.687Z,21.10
2019-03-30T10:06:40.383Z,20.90
2019-03-30T10:09:09.118Z,21.10
2019-03-30T10:11:37.712Z,21.20
2019-03-30T10:14:06.444Z,20.80
2019-03-30T10:16:35.083Z,21.00
2019-03-30T10:19:22.650Z,21.20
2019-03-30T10:21:51.298Z,21.00
2019-03-30T10:24:19.988Z,20.90
2019-03-30T10:26:48.751Z,21.30
2019-03-30T10:29:17.455Z,21.60
2019-03-30T10:31:46.250Z,21.80
2019-03-30T10:34:15.063Z,21.90
2019-03-30T10:36:43.701Z,22.40
2019-03-30T10:39:12.444Z,22.90
2019-03-30T10:41:41.247Z,23.00
2019-03-30T10:44:09.882Z,23.20
2019-03-30T10:46:38.764Z,23.30
2019-03-30T10:49:07.506Z,22.50
2019-03-30T10:51:36.035Z,22.20
2019-03-30T10:54:04.803Z,22.60
2019-03-30T10:56:33.447Z,23.40
2019-03-30T10:59:02.298Z,23.30
2019-03-30T11:01:30.967Z,22.50
2019-03-30T11:03:59.708Z,23.20
2019-03-30T11:06:28.484Z,23.50
2019-03-30T11:08:57.235Z,24.20
2019-03-30T11:11:25.916Z,23.90
2019-03-30T11:13:54.591Z,24.10
2019-03-30T11:16:23.330Z,24.70
2019-03-30T11:18:51.939Z,24.90
2019-03-30T11:21:20.849Z,24.10
2019-03-30T11:23:49.653Z,24.60
2019-03-30T11:26:18.395Z,24.60
2019-03-30T11:28:47.343Z,24.70
2019-03-30T11:31:16.236Z,24.30
2019-03-30T11:33:44.943Z,23.70
2019-03-30T11:36:13.811Z,23.90
2019-03-30T11:38:42.488Z,24.50
2019-03-30T11:41:11.325Z,23.80
2019-03-30T11:43:40.058Z,24.00
2019-03-30T11:46:08.844Z,24.40
2019-03-30T11:48:37.804Z,25.40
2019-03-30T11:51:06.445Z,25.10
2019-03-30T11:53:53.972Z,23.90
2019-03-30T11:56:22.762Z,24.40
2019-03-30T11:58:51.444Z,22.90
2019-03-30T12:01:21.776Z,22.70
2019-03-30T12:03:50.827Z,23.50
2019-03-30T12:06:19.624Z,23.70
2019-03-30T12:08:49.240Z,24.00
2019-03-30T12:11:17.904Z,23.80
2019-03-30T12:13:46.833Z,23.60
2019-03-30T12:16:15.668Z,23.60
2019-03-30T12:18:44.323Z,24.00
2019-03-30T12:21:13.069Z,23.60
2019-03-30T12:23:42.713Z,23.90
2019-03-30T12:26:11.744Z,22.90
2019-03-30T12:28:59.356Z,23.20
2019-03-30T12:31:28.087Z,23.50
2019-03-30T12:33:56.964Z,22.80
2019-03-30T12:36:25.823Z,23.90
2019-03-30T12:38:54.352Z,24.40
2019-03-30T12:41:23.087Z,24.30
2019-03-30T12:43:51.780Z,24.50
2019-03-30T12:46:20.500Z,24.60
2019-03-30T12:48:49.232Z,23.20
2019-03-30T12:51:18.043Z,23.80
2019-03-30T12:53:50.360Z,24.30
2019-03-30T12:56:17.285Z,24.00
2019-03-30T12:58:46.129Z,24.00
2019-03-30T13:01:15.676Z,23.60
2019-03-30T13:03:44.565Z,23.40
2019-03-30T13:06:13.443Z,23.60
2019-03-30T13:08:42.076Z,24.00
2019-03-30T13:11:12.828Z,23.70
2019-03-30T13:13:41.449Z,23.10
2019-03-30T13:16:10.287Z,23.30
2019-03-30T13:18:38.927Z,23.10
2019-03-30T13:21:07.724Z,22.00
2019-03-30T13:23:36.564Z,21.50
2019-03-30T13:26:05.123Z,22.00
2019-03-30T13:28:33.910Z,22.00
2019-03-30T13:31:02.673Z,21.70
2019-03-30T13:33:31.393Z,21.60
2019-03-30T13:36:00.227Z,21.70
2019-03-30T13:38:28.856Z,21.00
2019-03-30T13:40:57.707Z,21.30
2019-03-30T13:43:26.377Z,21.40
2019-03-30T13:45:55.493Z,20.90
2019-03-30T13:48:24.056Z,20.90
2019-03-30T13:50:52.947Z,20.90
2019-03-30T13:53:21.892Z,20.40
2019-03-30T13:55:50.739Z,20.60
2019-03-30T13:58:19.940Z,21.00
